Погода Касас-Грандесна 2 недели

Чиуауа, Мексика

22 июля-04 августа
  • 22июля
    Сегодня
    +18°
    +31°
    Пасмурно, сплошная облачность
    ВремяПогодаТемператураВлажностьДавлениеВетер, м/сВероятность осадков
    00:00Практически безоблачно+22°C68 %645 мм2.7 м/с16 %
    03:00Облачно с прояснениями+22°C71 %644 мм0.3 м/с4 %
    06:00Практически безоблачно+20°C80 %644 мм0.2 м/с6 %
    09:00Ясно и безоблачно+22°C57 %645 мм0.6 м/с2 %
    12:00Ясно и безоблачно+27°C38 %646 мм0.6 м/с2 %
    15:00Пасмурно, сплошная облачность+31°C28 %644 мм1.1 м/с20 %
    18:00Небольшая облачность+29°C30 %643 мм1.2 м/с29 %
    21:00Практически безоблачно+25°C47 %644 мм0.4 м/с15 %
  • 23июля
    Вторник
    +19°
    +33°
    Практически безоблачно
    ВремяПогодаТемператураВлажностьДавлениеВетер, м/сВероятность осадков
    00:00Ясно и безоблачно+22°C58 %644 мм2.1 м/с2 %
    03:00Ясно и безоблачно+20°C68 %644 мм0.3 м/с2 %
    06:00Ясно и безоблачно+18°C76 %644 мм0.2 м/с2 %
    09:00Ясно и безоблачно+22°C58 %646 мм0.7 м/с2 %
    12:00Практически безоблачно+28°C38 %647 мм1.1 м/с6 %
    15:00Практически безоблачно+33°C28 %647 мм1.6 м/с5 %
    18:00Практически безоблачно+33°C24 %646 мм1.9 м/с2 %
    21:00Практически безоблачно+27°C30 %646 мм0.3 м/с2 %
  • 24июля
    Среда
    +18°
    +35°
    Ясно и безоблачно
    ВремяПогодаТемператураВлажностьДавлениеВетер, м/сВероятность осадков
    00:00Ясно и безоблачно+24°C36 %646 мм1.4 м/с2 %
    03:00Ясно и безоблачно+21°C48 %645 мм0.3 м/с2 %
    06:00Ясно и безоблачно+19°C60 %645 мм0.2 м/с2 %
    09:00Ясно и безоблачно+24°C46 %648 мм0.7 м/с2 %
    12:00Ясно и безоблачно+30°C28 %649 мм1.3 м/с2 %
    15:00Ясно и безоблачно+34°C21 %649 мм1.3 м/с2 %
    18:00Практически безоблачно+34°C17 %647 мм1.7 м/с2 %
    21:00Ясно и безоблачно+28°C22 %646 мм0.3 м/с2 %
  • 25июля
    Четверг
    +19°
    +36°
    Небольшая облачность
    ВремяПогодаТемператураВлажностьДавлениеВетер, м/сВероятность осадков
    00:00Ясно и безоблачно+26°C27 %647 мм1.2 м/с2 %
    03:00Ясно и безоблачно+21°C38 %645 мм0.3 м/с2 %
    06:00Ясно и безоблачно+19°C46 %645 мм0.2 м/с2 %
    09:00Ясно и безоблачно+24°C33 %647 мм0.6 м/с2 %
    12:00Ясно и безоблачно+30°C21 %648 мм0.7 м/с2 %
    15:00Небольшая облачность+35°C22 %648 мм1.5 м/с8 %
    18:00Облачно с прояснениями+34°C21 %646 мм1.6 м/с11 %
    21:00Небольшая облачность+28°C30 %645 мм0.3 м/с13 %
  • 26июля
    Пятница
    +21°
    +36°
    Практически безоблачно
    ВремяПогодаТемператураВлажностьДавлениеВетер, м/сВероятность осадков
    00:00Практически безоблачно+25°C44 %645 мм1.8 м/с10 %
    03:00Облачно с прояснениями+21°C64 %643 мм0.3 м/с2 %
    06:00Небольшая облачность+19°C74 %643 мм0.2 м/с2 %
    09:00Ясно и безоблачно+26°C41 %645 мм0.8 м/с2 %
    12:00Практически безоблачно+33°C24 %646 мм0.8 м/с2 %
    15:00Практически безоблачно+36°C18 %645 мм1.1 м/с7 %
    18:00Ясно и безоблачно+35°C17 %644 мм1.0 м/с14 %
    21:00Небольшая облачность+28°C44 %644 мм0.7 м/с8 %
Мы используем cookies
Соглашаюсь